createdAt,value
2018-12-17T00:00:38.045Z,63.90
2018-12-17T00:01:38.039Z,64.21
2018-12-17T00:02:38.247Z,64.21
2018-12-17T00:03:38.017Z,63.70
2018-12-17T00:04:38.005Z,64.01
2018-12-17T00:05:41.693Z,63.90
2018-12-17T00:06:37.983Z,64.11
2018-12-17T00:07:37.972Z,64.21
2018-12-17T00:08:38.267Z,63.90
2018-12-17T00:09:37.951Z,64.01
2018-12-17T00:10:37.941Z,64.01
2018-12-17T00:11:37.929Z,64.01
2018-12-17T00:12:37.919Z,64.11
2018-12-17T00:13:37.908Z,64.01
2018-12-17T00:14:38.063Z,64.14
2018-12-17T00:15:37.886Z,63.93
2018-12-17T00:16:37.875Z,64.14
2018-12-17T00:17:37.866Z,64.04
2018-12-17T00:18:37.853Z,64.04
2018-12-17T00:19:37.846Z,64.01
2018-12-17T00:20:38.013Z,64.01
2018-12-17T00:21:37.821Z,64.24
2018-12-17T00:22:37.808Z,64.14
2018-12-17T00:23:37.794Z,63.73
2018-12-17T00:24:37.791Z,64.04
2018-12-17T00:25:37.776Z,64.04
2018-12-17T00:26:37.876Z,64.04
2018-12-17T00:27:37.754Z,63.73
2018-12-17T00:28:37.746Z,63.84
2018-12-17T00:29:37.728Z,63.60
2018-12-17T00:30:37.721Z,63.84
2018-12-17T00:31:37.710Z,63.73
2018-12-17T00:32:37.893Z,63.84
2018-12-17T00:33:37.689Z,63.81
2018-12-17T00:34:37.677Z,63.73
2018-12-17T00:35:37.666Z,63.73
2018-12-17T00:36:37.656Z,63.84
2018-12-17T00:37:37.654Z,63.64
2018-12-17T00:38:37.741Z,63.81
2018-12-17T00:39:37.622Z,63.84
2018-12-17T00:40:37.621Z,63.70
2018-12-17T00:41:37.601Z,63.84
2018-12-17T00:42:37.590Z,63.84
2018-12-17T00:43:37.578Z,63.53
2018-12-17T00:44:37.679Z,63.53
2018-12-17T00:45:37.557Z,63.70
2018-12-17T00:46:37.547Z,63.84
2018-12-17T00:47:37.539Z,63.40
2018-12-17T00:48:37.525Z,63.64
2018-12-17T00:49:37.512Z,63.53
2018-12-17T00:50:37.792Z,63.50
2018-12-17T00:51:37.490Z,63.43
2018-12-17T00:52:37.481Z,63.93
2018-12-17T00:53:37.468Z,63.64
2018-12-17T00:54:37.461Z,63.73
2018-12-17T00:55:37.447Z,63.64
2018-12-17T00:56:37.566Z,63.60
2018-12-17T00:57:37.504Z,63.73
2018-12-17T00:58:37.417Z,63.64
2018-12-17T00:59:37.402Z,63.50
2018-12-17T01:00:37.392Z,63.64
2018-12-17T01:01:37.387Z,63.40
2018-12-17T01:02:37.470Z,63.43
2018-12-17T01:03:37.359Z,63.73
2018-12-17T01:04:37.348Z,63.43
2018-12-17T01:05:37.339Z,63.53
2018-12-17T01:06:37.326Z,63.73
2018-12-17T01:07:37.327Z,63.73
2018-12-17T01:08:37.511Z,63.73
2018-12-17T01:09:37.293Z,63.53
2018-12-17T01:10:37.283Z,63.64
2018-12-17T01:11:37.272Z,63.73
2018-12-17T01:12:37.261Z,63.64
2018-12-17T01:13:37.250Z,63.64
2018-12-17T01:14:37.361Z,63.70
2018-12-17T01:15:37.226Z,63.84
2018-12-17T01:16:37.211Z,63.84
2018-12-17T01:17:37.204Z,64.04
2018-12-17T01:18:37.194Z,63.50
2018-12-17T01:19:37.183Z,63.53
2018-12-17T01:20:37.278Z,63.73
2018-12-17T01:21:37.162Z,63.84
2018-12-17T01:22:37.151Z,63.84
2018-12-17T01:23:37.134Z,63.84
2018-12-17T01:24:37.127Z,63.81
2018-12-17T01:25:37.116Z,63.64
2018-12-17T01:26:37.384Z,63.84
2018-12-17T01:27:37.092Z,63.64
2018-12-17T01:28:37.084Z,63.73
2018-12-17T01:29:37.069Z,63.53
2018-12-17T01:30:37.062Z,63.84
2018-12-17T01:31:37.052Z,63.93
2018-12-17T01:32:37.275Z,63.73
2018-12-17T01:33:37.030Z,63.84
2018-12-17T01:34:37.081Z,63.84
2018-12-17T01:35:37.007Z,63.84
2018-12-17T01:36:36.997Z,63.64
2018-12-17T01:37:36.986Z,63.84
2018-12-17T01:38:37.081Z,63.93
2018-12-17T01:39:36.966Z,63.73
2018-12-17T01:40:36.952Z,63.73
2018-12-17T01:41:36.941Z,64.04
2018-12-17T01:42:36.934Z,63.73
2018-12-17T01:43:36.918Z,64.04
2018-12-17T01:44:37.005Z,64.04
2018-12-17T01:45:36.898Z,64.04
2018-12-17T01:46:36.888Z,63.84
2018-12-17T01:47:36.876Z,63.53
2018-12-17T01:48:36.865Z,63.84
2018-12-17T01:49:36.853Z,63.43
2018-12-17T01:50:37.158Z,63.73
2018-12-17T01:51:36.844Z,63.43
2018-12-17T01:52:36.819Z,63.73
2018-12-17T01:53:36.808Z,63.53
2018-12-17T01:54:36.799Z,63.84
2018-12-17T01:55:36.788Z,63.84
2018-12-17T01:56:36.883Z,63.84
2018-12-17T01:57:36.767Z,63.73
2018-12-17T01:58:36.753Z,63.84
2018-12-17T01:59:36.743Z,63.84
2018-12-17T02:00:36.732Z,63.84
2018-12-17T02:01:36.721Z,63.96
2018-12-17T02:02:36.809Z,63.67
2018-12-17T02:03:36.698Z,63.76
2018-12-17T02:04:36.688Z,64.07
2018-12-17T02:05:36.677Z,63.96
2018-12-17T02:06:36.666Z,64.07
2018-12-17T02:07:36.654Z,64.07
2018-12-17T02:08:36.816Z,64.07
2018-12-17T02:09:36.634Z,64.07
2018-12-17T02:10:36.623Z,63.87
2018-12-17T02:11:36.611Z,63.76
2018-12-17T02:12:36.600Z,63.67
2018-12-17T02:13:36.588Z,64.07
2018-12-17T02:14:36.869Z,64.17
2018-12-17T02:15:36.575Z,63.67
2018-12-17T02:16:36.557Z,63.90
2018-12-17T02:17:36.546Z,64.07
2018-12-17T02:18:36.555Z,63.96
2018-12-17T02:19:36.524Z,63.90
2018-12-17T02:20:36.620Z,63.90
2018-12-17T02:21:36.508Z,63.70
2018-12-17T02:22:36.492Z,63.79
2018-12-17T02:23:36.479Z,63.76
2018-12-17T02:24:36.475Z,63.96
2018-12-17T02:25:36.458Z,63.90
2018-12-17T02:26:36.684Z,63.90
2018-12-17T02:27:36.434Z,63.46
2018-12-17T02:28:36.424Z,63.67
2018-12-17T02:29:36.413Z,63.70
2018-12-17T02:30:36.404Z,63.59
2018-12-17T02:31:36.388Z,63.49
2018-12-17T02:32:36.484Z,63.49
2018-12-17T02:33:36.366Z,63.79
2018-12-17T02:34:36.354Z,63.79
2018-12-17T02:35:36.353Z,63.90
2018-12-17T02:36:36.335Z,63.79
2018-12-17T02:37:36.322Z,63.70
2018-12-17T02:38:36.420Z,63.79
2018-12-17T02:39:36.300Z,63.79
2018-12-17T02:40:36.290Z,63.70
2018-12-17T02:41:36.283Z,64.00
2018-12-17T02:42:36.266Z,63.59
2018-12-17T02:43:36.259Z,63.59
2018-12-17T02:44:36.354Z,63.70
2018-12-17T02:45:36.233Z,63.49
2018-12-17T02:46:36.226Z,63.59
2018-12-17T02:47:36.215Z,63.59
2018-12-17T02:48:36.204Z,63.70
2018-12-17T02:49:36.192Z,63.29
2018-12-17T02:50:36.387Z,63.59
2018-12-17T02:51:36.178Z,63.19
2018-12-17T02:52:36.163Z,63.19
2018-12-17T02:53:36.147Z,63.29
2018-12-17T02:54:36.143Z,63.39
2018-12-17T02:55:36.135Z,63.39
2018-12-17T02:56:36.322Z,62.99
2018-12-17T02:57:36.101Z,62.99
2018-12-17T02:58:43.838Z,63.09
2018-12-17T02:59:37.082Z,63.09
2018-12-17T03:00:36.069Z,63.09
2018-12-17T03:01:36.059Z,63.29
2018-12-17T03:02:36.205Z,63.09
2018-12-17T03:03:36.036Z,63.19
2018-12-17T03:04:36.024Z,63.32
2018-12-17T03:05:36.013Z,63.09
2018-12-17T03:06:36.004Z,63.32
2018-12-17T03:07:35.992Z,63.19
2018-12-17T03:08:36.186Z,63.22
2018-12-17T03:09:35.970Z,63.19
2018-12-17T03:10:35.961Z,63.09
2018-12-17T03:11:35.950Z,63.22
2018-12-17T03:12:35.939Z,63.02
2018-12-17T03:13:35.925Z,63.12
2018-12-17T03:14:36.178Z,63.22
2018-12-17T03:15:35.906Z,63.02
2018-12-17T03:16:35.899Z,63.22
2018-12-17T03:17:35.886Z,63.12
2018-12-17T03:18:35.870Z,63.32
2018-12-17T03:19:35.860Z,63.02
2018-12-17T03:20:35.958Z,63.22
2018-12-17T03:21:35.841Z,63.02
2018-12-17T03:22:35.830Z,63.12
2018-12-17T03:23:35.822Z,63.12
2018-12-17T03:24:35.811Z,63.22
2018-12-17T03:25:35.795Z,63.15
2018-12-17T03:26:35.883Z,63.25
2018-12-17T03:27:35.801Z,63.25
2018-12-17T03:28:35.767Z,63.25
2018-12-17T03:29:35.755Z,63.25
2018-12-17T03:30:35.748Z,63.22
2018-12-17T03:31:35.732Z,63.22
2018-12-17T03:32:35.897Z,63.32
2018-12-17T03:33:35.710Z,62.74
2018-12-17T03:34:35.700Z,62.92
2018-12-17T03:35:35.688Z,62.85
2018-12-17T03:36:36.334Z,63.05
2018-12-17T03:37:35.698Z,62.74
2018-12-17T03:38:35.760Z,62.74
2018-12-17T03:39:35.644Z,62.54
2018-12-17T03:40:35.641Z,62.95
2018-12-17T03:41:35.622Z,62.82
2018-12-17T03:42:35.617Z,63.05
2018-12-17T03:43:35.600Z,63.05
2018-12-17T03:44:35.733Z,62.64
2018-12-17T03:45:35.579Z,62.64
2018-12-17T03:46:36.330Z,62.64
2018-12-17T03:47:35.555Z,62.64
2018-12-17T03:48:35.549Z,62.64
2018-12-17T03:49:35.535Z,62.74
2018-12-17T03:50:35.815Z,62.54
2018-12-17T03:51:35.514Z,62.74
2018-12-17T03:52:35.503Z,62.54
2018-12-17T03:53:35.489Z,62.64
2018-12-17T03:54:36.331Z,62.64
2018-12-17T03:55:35.468Z,62.44
2018-12-17T03:56:35.577Z,62.47
2018-12-17T03:57:35.448Z,62.67
2018-12-17T03:58:35.439Z,62.67
2018-12-17T03:59:35.425Z,62.67
2018-12-17T04:00:35.419Z,62.54
2018-12-17T04:01:35.403Z,62.54
2018-12-17T04:02:35.547Z,62.57
2018-12-17T04:03:35.381Z,62.67
2018-12-17T04:04:35.378Z,62.57
2018-12-17T04:05:35.367Z,62.57
2018-12-17T04:06:36.329Z,62.67
2018-12-17T04:07:35.336Z,62.67
2018-12-17T04:08:36.433Z,62.57
2018-12-17T04:09:35.311Z,62.57
2018-12-17T04:10:35.929Z,62.77
2018-12-17T04:11:35.292Z,62.47
2018-12-17T04:12:35.290Z,62.47
2018-12-17T04:13:35.270Z,62.47
2018-12-17T04:14:35.546Z,62.47
2018-12-17T04:15:35.248Z,62.47
2018-12-17T04:16:35.832Z,62.67
2018-12-17T04:17:35.229Z,62.47
2018-12-17T04:18:35.219Z,62.27
2018-12-17T04:19:35.203Z,62.37
2018-12-17T04:20:35.928Z,62.37
2018-12-17T04:21:35.182Z,62.37
2018-12-17T04:22:35.173Z,62.37
2018-12-17T04:23:35.230Z,62.57
2018-12-17T04:24:35.154Z,62.27
2018-12-17T04:25:35.132Z,62.47
2018-12-17T04:26:35.250Z,62.16
2018-12-17T04:27:35.115Z,62.27
2018-12-17T04:28:35.828Z,61.76
2018-12-17T04:29:35.094Z,62.07
2018-12-17T04:30:36.009Z,62.07
2018-12-17T04:31:35.076Z,61.96
2018-12-17T04:32:35.827Z,61.96
2018-12-17T04:33:35.055Z,61.99
2018-12-17T04:34:35.928Z,62.10
2018-12-17T04:35:35.047Z,62.10
2018-12-17T04:36:35.019Z,62.10
2018-12-17T04:37:35.006Z,62.19
2018-12-17T04:38:35.828Z,62.19
2018-12-17T04:39:34.984Z,62.10
2018-12-17T04:40:34.981Z,62.10
2018-12-17T04:41:34.962Z,61.99
2018-12-17T04:42:34.954Z,61.90
2018-12-17T04:43:34.940Z,61.69
2018-12-17T04:44:35.937Z,61.79
2018-12-17T04:45:34.923Z,61.79
2018-12-17T04:46:35.433Z,62.10
2018-12-17T04:47:34.892Z,61.90
2018-12-17T04:48:34.886Z,62.10
2018-12-17T04:49:34.871Z,61.82
2018-12-17T04:50:35.830Z,61.79
2018-12-17T04:51:34.852Z,61.59
2018-12-17T04:52:35.432Z,61.59
2018-12-17T04:53:34.828Z,61.69
2018-12-17T04:54:35.829Z,61.72
2018-12-17T04:55:34.808Z,61.41
2018-12-17T04:56:34.916Z,61.59
2018-12-17T04:57:34.786Z,61.52
2018-12-17T04:58:34.774Z,61.49
2018-12-17T04:59:34.767Z,61.29
2018-12-17T05:00:34.755Z,61.49
2018-12-17T05:01:34.739Z,61.52
2018-12-17T05:02:35.015Z,61.41
2018-12-17T05:03:34.717Z,61.52
2018-12-17T05:04:34.708Z,61.41
2018-12-17T05:05:34.697Z,61.41
2018-12-17T05:06:35.331Z,61.52
2018-12-17T05:07:34.672Z,61.52
2018-12-17T05:08:35.830Z,61.21
2018-12-17T05:09:34.652Z,61.41
2018-12-17T05:10:36.329Z,61.32
2018-12-17T05:11:34.755Z,61.32
2018-12-17T05:12:34.626Z,61.24
2018-12-17T05:13:34.607Z,61.41
2018-12-17T05:14:34.894Z,61.21
2018-12-17T05:15:34.585Z,60.81
2018-12-17T05:16:34.581Z,60.81
2018-12-17T05:17:34.564Z,61.21
2018-12-17T05:18:34.557Z,61.04
2018-12-17T05:19:34.545Z,61.32
2018-12-17T05:20:35.332Z,61.01
2018-12-17T05:21:34.519Z,60.81
2018-12-17T05:22:35.831Z,61.11
2018-12-17T05:23:34.501Z,60.94
2018-12-17T05:24:34.493Z,60.71
2018-12-17T05:25:34.479Z,60.50
2018-12-17T05:26:34.587Z,60.71
2018-12-17T05:27:34.455Z,60.74
2018-12-17T05:28:35.332Z,60.61
2018-12-17T05:29:34.431Z,60.30
2018-12-17T05:30:35.330Z,60.50
2018-12-17T05:31:34.408Z,60.61
2018-12-17T05:32:35.333Z,60.00
2018-12-17T05:33:34.389Z,60.20
2018-12-17T05:34:34.383Z,60.20
2018-12-17T05:35:34.367Z,60.61
2018-12-17T05:36:35.330Z,60.41
2018-12-17T05:37:34.343Z,60.00
2018-12-17T05:38:34.544Z,60.33
2018-12-17T05:39:34.321Z,60.30
2018-12-17T05:40:35.827Z,59.80
2018-12-17T05:41:34.302Z,59.49
2018-12-17T05:42:34.933Z,59.90
2018-12-17T05:43:34.277Z,59.59
2018-12-17T05:44:34.397Z,59.90
2018-12-17T05:45:34.255Z,59.87
2018-12-17T05:46:34.246Z,59.47
2018-12-17T05:47:34.234Z,59.47
2018-12-17T05:48:34.229Z,59.47
2018-12-17T05:49:34.227Z,59.56
2018-12-17T05:50:34.656Z,59.67
2018-12-17T05:51:34.194Z,59.56
2018-12-17T05:52:34.192Z,58.96
2018-12-17T05:53:34.170Z,59.77
2018-12-17T05:54:34.832Z,59.29
2018-12-17T05:55:34.147Z,59.06
2018-12-17T05:56:34.250Z,58.96
2018-12-17T05:57:34.124Z,59.06
2018-12-17T05:58:34.123Z,58.96
2018-12-17T05:59:34.099Z,59.47
2018-12-17T06:00:34.924Z,59.47
2018-12-17T06:01:34.077Z,59.06
2018-12-17T06:02:34.431Z,59.16
2018-12-17T06:03:34.059Z,59.27
2018-12-17T06:04:34.831Z,59.16
2018-12-17T06:05:34.037Z,59.27
2018-12-17T06:06:34.828Z,58.53
2018-12-17T06:07:34.013Z,58.73
2018-12-17T06:08:34.826Z,58.93
2018-12-17T06:09:33.993Z,58.73
2018-12-17T06:10:34.837Z,59.03
2018-12-17T06:11:33.974Z,58.33
2018-12-17T06:12:34.932Z,59.14
2018-12-17T06:13:33.950Z,58.33
2018-12-17T06:14:34.065Z,58.43
2018-12-17T06:15:33.928Z,58.33
2018-12-17T06:16:33.917Z,58.60
2018-12-17T06:17:33.904Z,58.20
2018-12-17T06:18:35.329Z,58.63
2018-12-17T06:19:33.892Z,58.50
2018-12-17T06:20:35.330Z,58.33
2018-12-17T06:21:33.861Z,58.33
2018-12-17T06:22:33.850Z,58.70
2018-12-17T06:23:33.840Z,58.30
2018-12-17T06:24:34.826Z,58.50
2018-12-17T06:25:33.818Z,58.33
2018-12-17T06:26:35.326Z,58.40
2018-12-17T06:27:37.069Z,58.50
2018-12-17T06:28:33.795Z,58.50
2018-12-17T06:29:35.633Z,58.60
2018-12-17T06:30:36.423Z,58.60
2018-12-17T06:31:33.752Z,58.50
2018-12-17T06:32:35.330Z,58.60
2018-12-17T06:33:33.730Z,58.60
2018-12-17T06:34:33.730Z,58.27
2018-12-17T06:35:33.707Z,58.60
2018-12-17T06:36:34.329Z,58.50
2018-12-17T06:37:33.685Z,58.50
2018-12-17T06:38:34.829Z,58.20
2018-12-17T06:39:33.703Z,58.09
2018-12-17T06:40:33.654Z,58.27
2018-12-17T06:41:33.641Z,58.27
2018-12-17T06:42:33.634Z,58.47
2018-12-17T06:43:33.619Z,58.47
2018-12-17T06:44:33.722Z,58.07
2018-12-17T06:45:33.655Z,58.17
2018-12-17T06:46:33.588Z,58.17
2018-12-17T06:47:33.576Z,58.37
2018-12-17T06:48:33.567Z,58.34
2018-12-17T06:49:33.556Z,58.25
2018-12-17T06:50:33.645Z,58.25
2018-12-17T06:51:33.532Z,58.25
2018-12-17T06:52:33.522Z,58.14
2018-12-17T06:53:33.512Z,58.25
2018-12-17T06:54:33.500Z,58.12
2018-12-17T06:55:33.508Z,57.81
2018-12-17T06:56:33.689Z,58.04
2018-12-17T06:57:33.468Z,57.81
2018-12-17T06:58:33.455Z,58.01
2018-12-17T06:59:33.445Z,57.91
2018-12-17T07:00:33.434Z,58.01
2018-12-17T07:01:33.423Z,58.12
2018-12-17T07:02:33.587Z,57.91
2018-12-17T07:03:33.399Z,57.91
2018-12-17T07:04:33.390Z,57.81
2018-12-17T07:05:33.380Z,57.78
2018-12-17T07:06:33.368Z,58.09
2018-12-17T07:07:33.358Z,57.68
2018-12-17T07:08:33.448Z,58.09
2018-12-17T07:09:33.333Z,57.89
2018-12-17T07:10:33.324Z,57.98
2018-12-17T07:11:33.313Z,58.09
2018-12-17T07:12:33.303Z,57.98
2018-12-17T07:13:33.292Z,57.89
2018-12-17T07:14:36.514Z,58.06
2018-12-17T07:15:33.266Z,58.19
2018-12-17T07:16:33.255Z,57.89
2018-12-17T07:17:33.243Z,58.29
2018-12-17T07:18:33.237Z,57.76
2018-12-17T07:19:33.225Z,58.16
2018-12-17T07:20:33.469Z,57.96
2018-12-17T07:21:33.203Z,57.76
2018-12-17T07:22:33.194Z,57.96
2018-12-17T07:23:33.181Z,57.86
2018-12-17T07:24:33.170Z,57.83
2018-12-17T07:25:33.159Z,57.76
2018-12-17T07:26:33.245Z,57.56
2018-12-17T07:27:33.137Z,57.93
2018-12-17T07:28:33.127Z,57.53
2018-12-17T07:29:33.113Z,57.63
2018-12-17T07:30:33.100Z,57.63
2018-12-17T07:31:33.093Z,57.73
2018-12-17T07:32:33.321Z,57.73
2018-12-17T07:33:33.075Z,57.63
2018-12-17T07:34:33.060Z,57.73
2018-12-17T07:35:33.049Z,57.83
2018-12-17T07:36:33.044Z,57.81
2018-12-17T07:37:33.028Z,57.60
2018-12-17T07:38:33.440Z,57.70
2018-12-17T07:39:33.005Z,57.30
2018-12-17T07:40:32.990Z,57.40
2018-12-17T07:41:32.983Z,57.50
2018-12-17T07:42:32.972Z,57.50
2018-12-17T07:43:32.961Z,57.40
2018-12-17T07:44:33.048Z,57.60
2018-12-17T07:45:32.939Z,57.17
2018-12-17T07:46:32.925Z,57.48
2018-12-17T07:47:32.918Z,57.48
2018-12-17T07:48:32.907Z,57.48
2018-12-17T07:49:32.895Z,57.57
2018-12-17T07:50:32.989Z,57.28
2018-12-17T07:51:32.875Z,57.35
2018-12-17T07:52:32.943Z,57.24
2018-12-17T07:53:32.852Z,57.35
2018-12-17T07:54:32.843Z,57.15
2018-12-17T07:55:32.830Z,57.15
2018-12-17T07:56:33.102Z,57.45
2018-12-17T07:57:32.810Z,57.32
2018-12-17T07:58:32.793Z,57.04
2018-12-17T07:59:32.789Z,56.92
2018-12-17T08:00:32.773Z,57.02
2018-12-17T08:01:32.765Z,56.92
2018-12-17T08:02:32.857Z,56.89
2018-12-17T08:03:32.749Z,56.99
2018-12-17T08:04:32.734Z,56.99
2018-12-17T08:05:32.722Z,57.19
2018-12-17T08:06:32.711Z,57.06
2018-12-17T08:07:32.698Z,57.50
2018-12-17T08:08:35.482Z,56.86
2018-12-17T08:09:32.676Z,56.96
2018-12-17T08:10:32.668Z,56.86
2018-12-17T08:11:32.654Z,56.93
2018-12-17T08:12:32.642Z,57.04
2018-12-17T08:13:32.628Z,56.93
2018-12-17T08:14:32.878Z,56.93
2018-12-17T08:15:32.610Z,56.84
2018-12-17T08:16:32.599Z,56.93
2018-12-17T08:17:32.586Z,56.84
2018-12-17T08:18:32.577Z,56.84
2018-12-17T08:19:32.563Z,56.81
2018-12-17T08:20:32.666Z,56.81
2018-12-17T08:21:32.545Z,56.91
2018-12-17T08:22:32.537Z,56.91
2018-12-17T08:23:32.522Z,56.61
2018-12-17T08:24:32.508Z,56.58
2018-12-17T08:25:32.501Z,56.58
2018-12-17T08:26:32.695Z,56.68
2018-12-17T08:27:32.477Z,56.48
2018-12-17T08:28:32.476Z,56.58
2018-12-17T08:29:32.454Z,56.58
2018-12-17T08:30:32.442Z,56.68
2018-12-17T08:31:32.435Z,56.98
2018-12-17T08:32:32.544Z,56.76
2018-12-17T08:33:32.415Z,56.76
2018-12-17T08:34:32.400Z,56.35
2018-12-17T08:35:32.391Z,56.45
2018-12-17T08:36:32.379Z,56.35
2018-12-17T08:37:32.371Z,56.56
2018-12-17T08:38:32.465Z,56.45
2018-12-17T08:39:32.347Z,56.33
2018-12-17T08:40:32.351Z,56.33
2018-12-17T08:41:32.325Z,56.33
2018-12-17T08:42:32.314Z,56.43
2018-12-17T08:43:32.299Z,56.52
2018-12-17T08:44:32.608Z,56.63
2018-12-17T08:45:32.281Z,56.52
2018-12-17T08:46:32.270Z,56.63
2018-12-17T08:47:32.259Z,56.23
2018-12-17T08:48:32.251Z,56.40
2018-12-17T08:49:32.235Z,56.33
2018-12-17T08:50:32.330Z,56.10
2018-12-17T08:51:32.216Z,56.20
2018-12-17T08:52:32.204Z,56.40
2018-12-17T08:53:32.190Z,56.50
2018-12-17T08:54:32.180Z,56.70
2018-12-17T08:55:32.173Z,56.60
2018-12-17T08:56:32.263Z,56.40
2018-12-17T08:57:37.978Z,56.50
2018-12-17T08:58:33.137Z,56.52
2018-12-17T08:59:32.135Z,56.63
2018-12-17T09:00:32.119Z,56.60
2018-12-17T09:01:32.103Z,56.20
2018-12-17T09:02:32.302Z,56.30
2018-12-17T09:03:32.094Z,56.10
2018-12-17T09:04:32.072Z,56.10
2018-12-17T09:05:32.064Z,55.80
2018-12-17T09:06:32.052Z,56.27
2018-12-17T09:07:32.039Z,55.98
2018-12-17T09:08:32.127Z,56.17
2018-12-17T09:09:32.022Z,54.85
2018-12-17T09:10:32.009Z,55.44
2018-12-17T09:11:31.996Z,55.52
2018-12-17T09:12:31.983Z,55.42
2018-12-17T09:13:31.979Z,55.52
2018-12-17T09:14:32.232Z,55.52
2018-12-17T09:15:31.950Z,55.12
2018-12-17T09:16:31.939Z,55.42
2018-12-17T09:17:31.934Z,55.32
2018-12-17T09:18:31.921Z,55.22
2018-12-17T09:19:31.906Z,54.92
2018-12-17T09:20:32.008Z,55.82
2018-12-17T09:21:31.884Z,56.12
2018-12-17T09:22:31.874Z,56.12
2018-12-17T09:23:31.928Z,55.94
2018-12-17T09:24:31.853Z,56.24
2018-12-17T09:25:31.844Z,55.85
2018-12-17T09:26:31.951Z,55.74
2018-12-17T09:27:31.823Z,56.24
2018-12-17T09:28:31.824Z,56.02
2018-12-17T09:29:31.801Z,56.32
2018-12-17T09:30:31.791Z,55.92
2018-12-17T09:31:31.781Z,56.15
2018-12-17T09:32:31.864Z,56.12
2018-12-17T09:33:31.754Z,56.32
2018-12-17T09:34:31.746Z,55.82
2018-12-17T09:35:31.739Z,56.02
2018-12-17T09:36:31.725Z,56.22
2018-12-17T09:37:31.712Z,55.92
2018-12-17T09:38:31.982Z,56.22
2018-12-17T09:39:31.691Z,55.92
2018-12-17T09:40:31.682Z,55.12
2018-12-17T09:41:31.671Z,55.19
2018-12-17T09:42:31.660Z,55.49
2018-12-17T09:43:31.648Z,55.79
2018-12-17T09:44:31.755Z,55.12
2018-12-17T09:45:31.627Z,55.40
2018-12-17T09:46:31.616Z,55.29
2018-12-17T09:47:31.608Z,55.40
2018-12-17T09:48:31.595Z,55.59
2018-12-17T09:49:31.584Z,55.07
2018-12-17T09:50:31.683Z,55.36
2018-12-17T09:51:31.562Z,55.57
2018-12-17T09:52:31.552Z,55.47
2018-12-17T09:53:31.541Z,55.27
2018-12-17T09:54:31.530Z,55.27
2018-12-17T09:55:31.533Z,55.09
2018-12-17T09:56:31.790Z,55.47
2018-12-17T09:57:31.496Z,55.17
2018-12-17T09:58:31.486Z,54.77
2018-12-17T09:59:31.475Z,55.24
2018-12-17T10:00:31.461Z,55.04
2018-12-17T10:01:31.453Z,54.74
2018-12-17T10:02:31.702Z,54.41
2018-12-17T10:03:31.433Z,54.82
2018-12-17T10:04:31.418Z,54.02
2018-12-17T10:05:31.409Z,54.09
2018-12-17T10:06:31.398Z,54.27
2018-12-17T10:07:31.388Z,54.66
2018-12-17T10:08:31.478Z,53.34
2018-12-17T10:09:31.367Z,53.64
2018-12-17T10:10:31.355Z,53.54
2018-12-17T10:11:31.344Z,54.06
2018-12-17T10:12:31.333Z,54.27
2018-12-17T10:13:31.323Z,54.76
2018-12-17T10:14:31.534Z,54.99
2018-12-17T10:15:31.301Z,54.09
2018-12-17T10:16:31.291Z,55.41
2018-12-17T10:17:31.279Z,55.41
2018-12-17T10:18:36.886Z,55.14
2018-12-17T10:19:32.364Z,56.14
2018-12-17T10:20:31.248Z,56.34
2018-12-17T10:21:31.235Z,55.64
2018-12-17T10:22:31.225Z,56.04
2018-12-17T10:23:31.213Z,56.24
2018-12-17T10:24:31.203Z,56.07
2018-12-17T10:25:31.289Z,56.57
2018-12-17T10:26:31.181Z,56.27
2018-12-17T10:27:31.170Z,56.49
2018-12-17T10:28:31.160Z,56.39
2018-12-17T10:29:31.147Z,56.70
2018-12-17T10:30:32.673Z,56.29
2018-12-17T10:31:31.294Z,56.70
2018-12-17T10:32:31.114Z,56.59
2018-12-17T10:33:31.106Z,56.62
2018-12-17T10:34:31.093Z,56.42
2018-12-17T10:35:31.087Z,56.52
2018-12-17T10:36:31.073Z,56.59
2018-12-17T10:37:31.325Z,56.70
2018-12-17T10:38:31.047Z,56.62
2018-12-17T10:39:31.035Z,56.92
2018-12-17T10:40:31.029Z,56.82
2018-12-17T10:41:31.015Z,56.82
2018-12-17T10:42:31.003Z,57.02
2018-12-17T10:43:31.117Z,56.52
2018-12-17T10:44:30.984Z,56.92
2018-12-17T10:45:30.974Z,56.92
2018-12-17T10:46:30.960Z,56.42
2018-12-17T10:47:30.999Z,56.92
2018-12-17T10:48:30.937Z,56.72
2018-12-17T10:49:31.127Z,56.62
2018-12-17T10:50:30.921Z,56.62
2018-12-17T10:51:30.909Z,56.32
2018-12-17T10:52:30.898Z,56.32
2018-12-17T10:53:30.899Z,56.12
2018-12-17T10:54:30.876Z,56.49
2018-12-17T10:55:30.971Z,56.20
2018-12-17T10:56:30.854Z,56.12
2018-12-17T10:57:30.839Z,56.42
2018-12-17T10:58:30.831Z,56.62
2018-12-17T10:59:30.822Z,57.02
2018-12-17T11:00:30.808Z,56.82
2018-12-17T11:01:32.494Z,56.65
2018-12-17T11:02:30.785Z,57.05
2018-12-17T11:03:30.775Z,57.37
2018-12-17T11:04:30.765Z,57.68
2018-12-17T11:05:30.758Z,57.78
2018-12-17T11:06:30.744Z,57.68
2018-12-17T11:07:30.957Z,58.00
2018-12-17T11:08:30.721Z,58.00
2018-12-17T11:09:30.716Z,57.60
2018-12-17T11:10:30.697Z,58.00
2018-12-17T11:11:30.693Z,58.18
2018-12-17T11:12:30.677Z,57.17
2018-12-17T11:13:30.770Z,57.07
2018-12-17T11:14:30.660Z,57.28
2018-12-17T11:15:30.645Z,57.17
2018-12-17T11:16:30.676Z,56.87
2018-12-17T11:17:30.622Z,56.87
2018-12-17T11:18:30.613Z,57.15
2018-12-17T11:19:31.020Z,56.74
2018-12-17T11:20:30.590Z,56.35
2018-12-17T11:21:30.586Z,56.24
2018-12-17T11:22:30.569Z,56.62
2018-12-17T11:23:30.559Z,56.45
2018-12-17T11:24:30.553Z,56.65
2018-12-17T11:25:30.823Z,57.05
2018-12-17T11:26:30.526Z,56.95
2018-12-17T11:27:30.514Z,56.87
2018-12-17T11:28:30.513Z,56.74
2018-12-17T11:29:30.495Z,56.87
2018-12-17T11:30:30.486Z,56.87
2018-12-17T11:31:30.589Z,56.98
2018-12-17T11:32:30.465Z,56.74
2018-12-17T11:33:30.453Z,56.95
2018-12-17T11:34:30.439Z,56.55
2018-12-17T11:35:30.430Z,56.74
2018-12-17T11:36:30.416Z,56.74
2018-12-17T11:37:30.502Z,56.35
2018-12-17T11:38:30.397Z,56.35
2018-12-17T11:39:30.384Z,56.55
2018-12-17T11:40:30.374Z,56.74
2018-12-17T11:41:30.364Z,55.92
2018-12-17T11:42:30.351Z,56.02
2018-12-17T11:43:30.456Z,56.12
2018-12-17T11:44:30.329Z,54.74
2018-12-17T11:45:30.319Z,52.64
2018-12-17T11:46:30.308Z,50.23
2018-12-17T11:47:30.304Z,49.93
2018-12-17T11:48:30.292Z,48.20
2018-12-17T11:49:30.400Z,48.27
2018-12-17T11:50:30.268Z,47.81
2018-12-17T11:51:30.257Z,46.67
2018-12-17T11:52:30.243Z,46.14
2018-12-17T11:53:30.236Z,45.72
2018-12-17T11:54:30.220Z,45.82
2018-12-17T11:55:30.317Z,45.79
2018-12-17T11:56:30.198Z,45.65
2018-12-17T11:57:30.188Z,46.25
2018-12-17T11:58:30.180Z,45.56
2018-12-17T11:59:30.166Z,46.54
2018-12-17T12:00:30.159Z,46.62
2018-12-17T12:01:30.318Z,47.03
2018-12-17T12:02:30.132Z,47.92
2018-12-17T12:03:30.125Z,47.53
2018-12-17T12:04:30.111Z,47.19
2018-12-17T12:05:30.100Z,47.58
2018-12-17T12:06:30.095Z,46.75
2018-12-17T12:07:30.406Z,46.06
2018-12-17T12:08:30.067Z,45.84
2018-12-17T12:09:30.063Z,47.16
2018-12-17T12:10:30.049Z,49.20
2018-12-17T12:11:30.037Z,50.19
2018-12-17T12:12:30.031Z,50.71
2018-12-17T12:13:30.118Z,49.89
2018-12-17T12:14:30.005Z,50.31
2018-12-17T12:15:29.991Z,52.69
2018-12-17T12:16:29.980Z,54.05
2018-12-17T12:17:29.972Z,55.10
2018-12-17T12:18:29.964Z,55.65
2018-12-17T12:19:30.272Z,55.67
2018-12-17T12:20:29.938Z,55.87
2018-12-17T12:21:29.929Z,54.43
2018-12-17T12:22:29.914Z,53.08
2018-12-17T12:23:29.907Z,53.70
2018-12-17T12:24:29.895Z,54.33
2018-12-17T12:25:29.987Z,54.95
2018-12-17T12:26:29.875Z,54.95
2018-12-17T12:27:29.859Z,54.46
2018-12-17T12:28:29.849Z,55.00
2018-12-17T12:29:29.841Z,54.93
2018-12-17T12:30:29.830Z,55.85
2018-12-17T12:31:29.918Z,55.05
2018-12-17T12:32:29.807Z,54.88
2018-12-17T12:33:29.796Z,56.01
2018-12-17T12:34:29.786Z,56.23
2018-12-17T12:35:29.775Z,56.26
2018-12-17T12:36:29.772Z,56.46
2018-12-17T12:37:30.075Z,56.59
2018-12-17T12:38:29.742Z,56.48
2018-12-17T12:39:29.741Z,56.11
2018-12-17T12:40:29.728Z,56.34
2018-12-17T12:41:29.712Z,56.64
2018-12-17T12:42:29.699Z,56.24
2018-12-17T12:43:29.791Z,56.34
2018-12-17T12:44:29.680Z,55.19
2018-12-17T12:45:29.672Z,53.31
2018-12-17T12:46:29.656Z,52.04
2018-12-17T12:47:29.647Z,50.68
2018-12-17T12:48:29.634Z,49.63
2018-12-17T12:49:29.877Z,49.81
2018-12-17T12:50:29.615Z,49.37
2018-12-17T12:51:32.696Z,49.66
2018-12-17T12:52:29.595Z,49.51